sensor_id;sensor_type;location;lat;lon;timestamp;temperature;humidity
68746;SHT31;73143;45.456;11.064;2024-02-21T00:02:13;11.24;63.48
68746;SHT31;73143;45.456;11.064;2024-02-21T00:04:50;11.24;63.53
68746;SHT31;73143;45.456;11.064;2024-02-21T00:07:27;11.24;63.61
68746;SHT31;73143;45.456;11.064;2024-02-21T00:10:06;11.24;63.69
68746;SHT31;73143;45.456;11.064;2024-02-21T00:12:45;11.21;63.71
68746;SHT31;73143;45.456;11.064;2024-02-21T00:15:24;11.20;63.72
68746;SHT31;73143;45.456;11.064;2024-02-21T00:18:01;11.18;63.77
68746;SHT31;73143;45.456;11.064;2024-02-21T00:20:40;11.17;63.72
68746;SHT31;73143;45.456;11.064;2024-02-21T00:23:18;11.18;63.62
68746;SHT31;73143;45.456;11.064;2024-02-21T00:25:56;11.19;63.49
68746;SHT31;73143;45.456;11.064;2024-02-21T00:28:32;11.19;63.38
68746;SHT31;73143;45.456;11.064;2024-02-21T00:31:10;11.18;63.31
68746;SHT31;73143;45.456;11.064;2024-02-21T00:33:47;11.17;63.23
68746;SHT31;73143;45.456;11.064;2024-02-21T00:36:24;11.17;63.21
68746;SHT31;73143;45.456;11.064;2024-02-21T00:39:00;11.17;63.23
68746;SHT31;73143;45.456;11.064;2024-02-21T00:41:38;11.14;63.20
68746;SHT31;73143;45.456;11.064;2024-02-21T00:44:15;11.12;63.16
68746;SHT31;73143;45.456;11.064;2024-02-21T00:46:54;11.10;63.34
68746;SHT31;73143;45.456;11.064;2024-02-21T00:49:33;11.10;63.30
68746;SHT31;73143;45.456;11.064;2024-02-21T00:52:10;11.09;62.87
68746;SHT31;73143;45.456;11.064;2024-02-21T00:54:48;11.02;62.91
68746;SHT31;73143;45.456;11.064;2024-02-21T00:57:26;10.97;62.74
68746;SHT31;73143;45.456;11.064;2024-02-21T01:00:03;10.96;62.84
68746;SHT31;73143;45.456;11.064;2024-02-21T01:02:48;10.98;62.85
68746;SHT31;73143;45.456;11.064;2024-02-21T01:05:27;10.99;62.77
68746;SHT31;73143;45.456;11.064;2024-02-21T01:08:07;10.99;62.62
68746;SHT31;73143;45.456;11.064;2024-02-21T01:10:45;10.99;62.61
68746;SHT31;73143;45.456;11.064;2024-02-21T01:13:23;10.98;62.50
68746;SHT31;73143;45.456;11.064;2024-02-21T01:16:01;10.97;62.41
68746;SHT31;73143;45.456;11.064;2024-02-21T01:18:41;10.94;62.02
68746;SHT31;73143;45.456;11.064;2024-02-21T01:21:18;10.91;61.94
68746;SHT31;73143;45.456;11.064;2024-02-21T01:23:55;10.88;61.52
68746;SHT31;73143;45.456;11.064;2024-02-21T01:26:32;10.87;61.46
68746;SHT31;73143;45.456;11.064;2024-02-21T01:29:10;10.86;61.24
68746;SHT31;73143;45.456;11.064;2024-02-21T01:31:47;10.85;61.01
68746;SHT31;73143;45.456;11.064;2024-02-21T01:34:24;10.86;61.02
68746;SHT31;73143;45.456;11.064;2024-02-21T01:37:01;10.87;60.72
68746;SHT31;73143;45.456;11.064;2024-02-21T01:39:37;10.87;60.40
68746;SHT31;73143;45.456;11.064;2024-02-21T01:42:15;10.84;59.86
68746;SHT31;73143;45.456;11.064;2024-02-21T01:44:54;10.86;59.86
68746;SHT31;73143;45.456;11.064;2024-02-21T01:47:30;10.86;59.42
68746;SHT31;73143;45.456;11.064;2024-02-21T01:50:11;10.86;59.15
68746;SHT31;73143;45.456;11.064;2024-02-21T01:52:50;10.85;59.03
68746;SHT31;73143;45.456;11.064;2024-02-21T01:55:27;10.84;58.79
68746;SHT31;73143;45.456;11.064;2024-02-21T01:58:09;10.84;58.70
68746;SHT31;73143;45.456;11.064;2024-02-21T02:00:47;10.85;58.78
68746;SHT31;73143;45.456;11.064;2024-02-21T02:03:26;10.85;58.54
68746;SHT31;73143;45.456;11.064;2024-02-21T02:06:03;10.84;58.35
68746;SHT31;73143;45.456;11.064;2024-02-21T02:08:41;10.81;58.11
68746;SHT31;73143;45.456;11.064;2024-02-21T02:11:19;10.80;58.03
68746;SHT31;73143;45.456;11.064;2024-02-21T02:13:57;10.78;57.65
68746;SHT31;73143;45.456;11.064;2024-02-21T02:16:34;10.74;57.52
68746;SHT31;73143;45.456;11.064;2024-02-21T02:19:11;10.72;57.48
68746;SHT31;73143;45.456;11.064;2024-02-21T02:21:51;10.72;57.48
68746;SHT31;73143;45.456;11.064;2024-02-21T02:24:38;10.71;57.51
68746;SHT31;73143;45.456;11.064;2024-02-21T02:27:16;10.70;57.68
68746;SHT31;73143;45.456;11.064;2024-02-21T02:29:53;10.67;58.12
68746;SHT31;73143;45.456;11.064;2024-02-21T02:32:31;10.63;58.60
68746;SHT31;73143;45.456;11.064;2024-02-21T02:35:08;10.61;58.70
68746;SHT31;73143;45.456;11.064;2024-02-21T02:37:51;10.61;57.89
68746;SHT31;73143;45.456;11.064;2024-02-21T02:40:30;10.55;57.84
68746;SHT31;73143;45.456;11.064;2024-02-21T02:43:10;10.53;58.20
68746;SHT31;73143;45.456;11.064;2024-02-21T02:45:47;10.51;58.34
68746;SHT31;73143;45.456;11.064;2024-02-21T02:48:25;10.51;58.48
68746;SHT31;73143;45.456;11.064;2024-02-21T02:51:03;10.50;58.77
68746;SHT31;73143;45.456;11.064;2024-02-21T02:53:41;10.50;59.01
68746;SHT31;73143;45.456;11.064;2024-02-21T02:56:20;10.52;58.78
68746;SHT31;73143;45.456;11.064;2024-02-21T02:58:58;10.52;58.92
68746;SHT31;73143;45.456;11.064;2024-02-21T03:01:35;10.51;58.74
68746;SHT31;73143;45.456;11.064;2024-02-21T03:04:13;10.51;58.69
68746;SHT31;73143;45.456;11.064;2024-02-21T03:06:50;10.50;58.60
68746;SHT31;73143;45.456;11.064;2024-02-21T03:09:27;10.48;58.72
68746;SHT31;73143;45.456;11.064;2024-02-21T03:12:05;10.47;58.82
68746;SHT31;73143;45.456;11.064;2024-02-21T03:14:49;10.43;58.74
68746;SHT31;73143;45.456;11.064;2024-02-21T03:17:27;10.40;58.81
68746;SHT31;73143;45.456;11.064;2024-02-21T03:20:07;10.39;58.84
68746;SHT31;73143;45.456;11.064;2024-02-21T03:22:48;10.35;58.77
68746;SHT31;73143;45.456;11.064;2024-02-21T03:25:25;10.33;58.79
68746;SHT31;73143;45.456;11.064;2024-02-21T03:28:03;10.31;58.91
68746;SHT31;73143;45.456;11.064;2024-02-21T03:30:41;10.27;59.13
68746;SHT31;73143;45.456;11.064;2024-02-21T03:33:18;10.25;59.19
68746;SHT31;73143;45.456;11.064;2024-02-21T03:35:56;10.24;59.13
68746;SHT31;73143;45.456;11.064;2024-02-21T03:38:34;10.23;59.18
68746;SHT31;73143;45.456;11.064;2024-02-21T03:41:11;10.22;59.42
68746;SHT31;73143;45.456;11.064;2024-02-21T03:43:51;10.22;59.67
68746;SHT31;73143;45.456;11.064;2024-02-21T03:46:28;10.22;59.72
68746;SHT31;73143;45.456;11.064;2024-02-21T03:49:06;10.23;59.86
68746;SHT31;73143;45.456;11.064;2024-02-21T03:51:43;10.23;60.00
68746;SHT31;73143;45.456;11.064;2024-02-21T03:54:21;10.23;60.08
68746;SHT31;73143;45.456;11.064;2024-02-21T03:56:58;10.23;60.25
68746;SHT31;73143;45.456;11.064;2024-02-21T03:59:36;10.24;60.28
68746;SHT31;73143;45.456;11.064;2024-02-21T04:02:14;10.22;60.34
68746;SHT31;73143;45.456;11.064;2024-02-21T04:04:53;10.24;60.44
68746;SHT31;73143;45.456;11.064;2024-02-21T04:07:32;10.25;60.47
68746;SHT31;73143;45.456;11.064;2024-02-21T04:10:14;10.24;60.54
68746;SHT31;73143;45.456;11.064;2024-02-21T04:12:53;10.25;60.70
68746;SHT31;73143;45.456;11.064;2024-02-21T04:15:30;10.26;60.79
68746;SHT31;73143;45.456;11.064;2024-02-21T04:18:08;10.26;60.89
68746;SHT31;73143;45.456;11.064;2024-02-21T04:20:46;10.28;60.87
68746;SHT31;73143;45.456;11.064;2024-02-21T04:23:23;10.28;60.83
68746;SHT31;73143;45.456;11.064;2024-02-21T04:26:00;10.28;60.92
68746;SHT31;73143;45.456;11.064;2024-02-21T04:28:38;10.28;60.95
68746;SHT31;73143;45.456;11.064;2024-02-21T04:31:15;10.30;60.80
68746;SHT31;73143;45.456;11.064;2024-02-21T04:33:53;10.30;60.64
68746;SHT31;73143;45.456;11.064;2024-02-21T04:36:30;10.29;60.60
68746;SHT31;73143;45.456;11.064;2024-02-21T04:39:06;10.27;60.60
68746;SHT31;73143;45.456;11.064;2024-02-21T04:41:44;10.24;60.75
68746;SHT31;73143;45.456;11.064;2024-02-21T04:44:22;10.20;60.72
68746;SHT31;73143;45.456;11.064;2024-02-21T04:46:59;10.21;60.80
68746;SHT31;73143;45.456;11.064;2024-02-21T04:49:37;10.22;60.65
68746;SHT31;73143;45.456;11.064;2024-02-21T04:52:16;10.22;60.59
68746;SHT31;73143;45.456;11.064;2024-02-21T04:54:53;10.22;60.47
68746;SHT31;73143;45.456;11.064;2024-02-21T04:57:29;10.21;60.37
68746;SHT31;73143;45.456;11.064;2024-02-21T05:00:10;10.23;60.07
68746;SHT31;73143;45.456;11.064;2024-02-21T05:02:53;10.23;59.99
68746;SHT31;73143;45.456;11.064;2024-02-21T05:05:30;10.23;59.98
68746;SHT31;73143;45.456;11.064;2024-02-21T05:08:09;10.23;60.08
68746;SHT31;73143;45.456;11.064;2024-02-21T05:10:48;10.21;59.83
68746;SHT31;73143;45.456;11.064;2024-02-21T05:13:26;10.20;59.92
68746;SHT31;73143;45.456;11.064;2024-02-21T05:16:04;10.20;60.00
68746;SHT31;73143;45.456;11.064;2024-02-21T05:18:42;10.20;60.11
68746;SHT31;73143;45.456;11.064;2024-02-21T05:21:19;10.20;60.13
68746;SHT31;73143;45.456;11.064;2024-02-21T05:23:57;10.18;60.22
68746;SHT31;73143;45.456;11.064;2024-02-21T05:26:34;10.16;60.31
68746;SHT31;73143;45.456;11.064;2024-02-21T05:29:11;10.14;60.33
68746;SHT31;73143;45.456;11.064;2024-02-21T05:31:57;10.12;60.61
68746;SHT31;73143;45.456;11.064;2024-02-21T05:34:36;10.12;60.89
68746;SHT31;73143;45.456;11.064;2024-02-21T05:37:14;10.11;60.92
68746;SHT31;73143;45.456;11.064;2024-02-21T05:39:51;10.09;61.02
68746;SHT31;73143;45.456;11.064;2024-02-21T05:42:31;10.06;61.16
68746;SHT31;73143;45.456;11.064;2024-02-21T05:45:09;10.07;61.35
68746;SHT31;73143;45.456;11.064;2024-02-21T05:47:47;10.04;61.54
68746;SHT31;73143;45.456;11.064;2024-02-21T05:50:24;10.04;61.63
68746;SHT31;73143;45.456;11.064;2024-02-21T05:53:01;10.01;61.64
68746;SHT31;73143;45.456;11.064;2024-02-21T05:55:39;10.00;61.60
68746;SHT31;73143;45.456;11.064;2024-02-21T05:58:17;9.99;61.66
68746;SHT31;73143;45.456;11.064;2024-02-21T06:00:56;9.98;61.65
68746;SHT31;73143;45.456;11.064;2024-02-21T06:03:33;9.98;61.65
68746;SHT31;73143;45.456;11.064;2024-02-21T06:06:10;9.98;61.59
68746;SHT31;73143;45.456;11.064;2024-02-21T06:08:47;9.98;61.49
68746;SHT31;73143;45.456;11.064;2024-02-21T06:11:24;9.98;61.54
68746;SHT31;73143;45.456;11.064;2024-02-21T06:14:02;9.99;61.56
68746;SHT31;73143;45.456;11.064;2024-02-21T06:16:39;9.99;61.74
68746;SHT31;73143;45.456;11.064;2024-02-21T06:19:18;9.98;62.06
68746;SHT31;73143;45.456;11.064;2024-02-21T06:21:55;9.98;62.16
68746;SHT31;73143;45.456;11.064;2024-02-21T06:24:37;10.01;62.12
68746;SHT31;73143;45.456;11.064;2024-02-21T06:27:15;10.02;62.04
68746;SHT31;73143;45.456;11.064;2024-02-21T06:29:54;10.03;62.01
68746;SHT31;73143;45.456;11.064;2024-02-21T06:32:32;10.02;62.04
68746;SHT31;73143;45.456;11.064;2024-02-21T06:35:09;10.01;62.25
68746;SHT31;73143;45.456;11.064;2024-02-21T06:37:46;9.99;62.51
68746;SHT31;73143;45.456;11.064;2024-02-21T06:40:24;10.00;62.76
68746;SHT31;73143;45.456;11.064;2024-02-21T06:43:08;9.99;63.38
68746;SHT31;73143;45.456;11.064;2024-02-21T06:45:46;9.96;63.86
68746;SHT31;73143;45.456;11.064;2024-02-21T06:48:25;9.91;64.93
68746;SHT31;73143;45.456;11.064;2024-02-21T06:51:03;9.88;64.70
68746;SHT31;73143;45.456;11.064;2024-02-21T06:53:41;9.90;64.26
68746;SHT31;73143;45.456;11.064;2024-02-21T06:56:18;9.95;63.64
68746;SHT31;73143;45.456;11.064;2024-02-21T06:58:58;9.98;62.99
68746;SHT31;73143;45.456;11.064;2024-02-21T07:01:36;10.01;62.66
68746;SHT31;73143;45.456;11.064;2024-02-21T07:04:17;10.04;62.62
68746;SHT31;73143;45.456;11.064;2024-02-21T07:06:54;10.08;62.64
68746;SHT31;73143;45.456;11.064;2024-02-21T07:09:31;10.11;62.74
68746;SHT31;73143;45.456;11.064;2024-02-21T07:12:09;10.13;62.85
68746;SHT31;73143;45.456;11.064;2024-02-21T07:14:46;10.17;62.93
68746;SHT31;73143;45.456;11.064;2024-02-21T07:17:25;10.20;63.02
68746;SHT31;73143;45.456;11.064;2024-02-21T07:20:03;10.26;63.10
68746;SHT31;73143;45.456;11.064;2024-02-21T07:22:46;10.29;63.13
68746;SHT31;73143;45.456;11.064;2024-02-21T07:25:24;10.34;63.20
68746;SHT31;73143;45.456;11.064;2024-02-21T07:28:01;10.39;63.20
68746;SHT31;73143;45.456;11.064;2024-02-21T07:30:39;10.46;63.25
68746;SHT31;73143;45.456;11.064;2024-02-21T07:33:17;10.54;63.20
68746;SHT31;73143;45.456;11.064;2024-02-21T07:35:55;10.61;63.15
68746;SHT31;73143;45.456;11.064;2024-02-21T07:38:33;10.69;63.18
68746;SHT31;73143;45.456;11.064;2024-02-21T07:41:09;10.78;62.90
68746;SHT31;73143;45.456;11.064;2024-02-21T07:43:46;10.85;62.80
68746;SHT31;73143;45.456;11.064;2024-02-21T07:46:24;10.93;62.70
68746;SHT31;73143;45.456;11.064;2024-02-21T07:49:02;11.01;62.64
68746;SHT31;73143;45.456;11.064;2024-02-21T07:51:40;11.11;62.51
68746;SHT31;73143;45.456;11.064;2024-02-21T07:54:18;11.20;62.45
68746;SHT31;73143;45.456;11.064;2024-02-21T07:56:55;11.30;62.30
68746;SHT31;73143;45.456;11.064;2024-02-21T07:59:33;11.40;62.07
68746;SHT31;73143;45.456;11.064;2024-02-21T08:02:10;11.48;61.93
68746;SHT31;73143;45.456;11.064;2024-02-21T08:04:47;11.59;61.72
68746;SHT31;73143;45.456;11.064;2024-02-21T08:07:25;11.66;61.82
68746;SHT31;73143;45.456;11.064;2024-02-21T08:10:04;11.76;63.64
68746;SHT31;73143;45.456;11.064;2024-02-21T08:12:44;11.86;63.44
68746;SHT31;73143;45.456;11.064;2024-02-21T08:15:21;11.95;64.97
68746;SHT31;73143;45.456;11.064;2024-02-21T08:18:00;12.02;65.91
68746;SHT31;73143;45.456;11.064;2024-02-21T08:20:38;12.09;66.09
68746;SHT31;73143;45.456;11.064;2024-02-21T08:23:17;12.17;66.15
68746;SHT31;73143;45.456;11.064;2024-02-21T08:25:57;12.24;65.79
68746;SHT31;73143;45.456;11.064;2024-02-21T08:28:37;12.33;65.53
68746;SHT31;73143;45.456;11.064;2024-02-21T08:31:19;12.41;65.19
68746;SHT31;73143;45.456;11.064;2024-02-21T08:34:01;12.45;64.78
68746;SHT31;73143;45.456;11.064;2024-02-21T08:36:38;12.53;64.87
68746;SHT31;73143;45.456;11.064;2024-02-21T08:39:16;12.60;64.94
68746;SHT31;73143;45.456;11.064;2024-02-21T08:41:54;12.65;65.40
68746;SHT31;73143;45.456;11.064;2024-02-21T08:44:33;12.66;65.81
68746;SHT31;73143;45.456;11.064;2024-02-21T08:47:12;12.67;65.76
68746;SHT31;73143;45.456;11.064;2024-02-21T08:49:50;12.69;65.65
68746;SHT31;73143;45.456;11.064;2024-02-21T08:52:42;12.76;65.37
68746;SHT31;73143;45.456;11.064;2024-02-21T08:55:20;12.84;64.18
68746;SHT31;73143;45.456;11.064;2024-02-21T08:57:57;12.90;64.05
68746;SHT31;73143;45.456;11.064;2024-02-21T09:00:35;12.99;63.80
68746;SHT31;73143;45.456;11.064;2024-02-21T09:03:11;13.08;63.09
68746;SHT31;73143;45.456;11.064;2024-02-21T09:05:50;13.15;61.91
68746;SHT31;73143;45.456;11.064;2024-02-21T09:08:27;13.23;61.65
68746;SHT31;73143;45.456;11.064;2024-02-21T09:11:05;13.32;61.54
68746;SHT31;73143;45.456;11.064;2024-02-21T09:13:44;13.41;60.71
68746;SHT31;73143;45.456;11.064;2024-02-21T09:16:23;13.50;60.39
68746;SHT31;73143;45.456;11.064;2024-02-21T09:19:00;13.59;59.59
68746;SHT31;73143;45.456;11.064;2024-02-21T09:21:40;13.66;59.09
68746;SHT31;73143;45.456;11.064;2024-02-21T09:24:19;13.72;59.13
68746;SHT31;73143;45.456;11.064;2024-02-21T09:26:57;13.79;58.73
68746;SHT31;73143;45.456;11.064;2024-02-21T09:29:36;13.87;58.11
68746;SHT31;73143;45.456;11.064;2024-02-21T09:32:13;13.92;57.68
68746;SHT31;73143;45.456;11.064;2024-02-21T09:34:51;13.97;57.81
68746;SHT31;73143;45.456;11.064;2024-02-21T09:37:31;14.04;58.23
68746;SHT31;73143;45.456;11.064;2024-02-21T09:40:10;14.12;58.05
68746;SHT31;73143;45.456;11.064;2024-02-21T09:42:49;14.20;57.58
68746;SHT31;73143;45.456;11.064;2024-02-21T09:45:36;14.26;56.76
68746;SHT31;73143;45.456;11.064;2024-02-21T09:48:23;14.30;56.42
68746;SHT31;73143;45.456;11.064;2024-02-21T09:51:14;14.35;56.24
68746;SHT31;73143;45.456;11.064;2024-02-21T09:53:53;14.40;56.23
68746;SHT31;73143;45.456;11.064;2024-02-21T09:56:46;14.47;55.85
68746;SHT31;73143;45.456;11.064;2024-02-21T09:59:24;14.53;55.95
68746;SHT31;73143;45.456;11.064;2024-02-21T10:02:04;14.60;55.75
68746;SHT31;73143;45.456;11.064;2024-02-21T10:04:42;14.65;55.51
68746;SHT31;73143;45.456;11.064;2024-02-21T10:07:19;14.70;54.72
68746;SHT31;73143;45.456;11.064;2024-02-21T10:10:02;14.74;54.16
68746;SHT31;73143;45.456;11.064;2024-02-21T10:12:49;14.80;54.12
68746;SHT31;73143;45.456;11.064;2024-02-21T10:15:28;14.86;53.76
68746;SHT31;73143;45.456;11.064;2024-02-21T10:18:07;14.92;52.50
68746;SHT31;73143;45.456;11.064;2024-02-21T10:20:44;14.95;51.92
68746;SHT31;73143;45.456;11.064;2024-02-21T10:23:40;15.00;51.65
68746;SHT31;73143;45.456;11.064;2024-02-21T10:26:19;15.07;51.45
68746;SHT31;73143;45.456;11.064;2024-02-21T10:28:57;15.13;51.53
68746;SHT31;73143;45.456;11.064;2024-02-21T10:31:35;15.21;51.21
68746;SHT31;73143;45.456;11.064;2024-02-21T10:34:16;15.29;51.56
68746;SHT31;73143;45.456;11.064;2024-02-21T10:37:01;15.35;51.72
68746;SHT31;73143;45.456;11.064;2024-02-21T10:39:39;15.42;52.19
68746;SHT31;73143;45.456;11.064;2024-02-21T10:42:17;15.47;52.60
68746;SHT31;73143;45.456;11.064;2024-02-21T10:45:05;15.53;53.06
68746;SHT31;73143;45.456;11.064;2024-02-21T10:47:47;15.58;53.42
68746;SHT31;73143;45.456;11.064;2024-02-21T10:50:35;15.63;53.51
68746;SHT31;73143;45.456;11.064;2024-02-21T10:53:35;15.63;53.82
68746;SHT31;73143;45.456;11.064;2024-02-21T10:56:28;15.65;54.28
68746;SHT31;73143;45.456;11.064;2024-02-21T10:59:07;15.69;54.48
68746;SHT31;73143;45.456;11.064;2024-02-21T11:01:46;15.74;54.56
68746;SHT31;73143;45.456;11.064;2024-02-21T11:04:27;15.83;54.67
68746;SHT31;73143;45.456;11.064;2024-02-21T11:07:06;15.86;54.74
68746;SHT31;73143;45.456;11.064;2024-02-21T11:09:50;15.87;54.81
68746;SHT31;73143;45.456;11.064;2024-02-21T11:12:32;15.90;54.96
68746;SHT31;73143;45.456;11.064;2024-02-21T11:15:11;15.96;54.94
68746;SHT31;73143;45.456;11.064;2024-02-21T11:17:55;16.01;54.95
68746;SHT31;73143;45.456;11.064;2024-02-21T11:20:33;16.06;54.91
68746;SHT31;73143;45.456;11.064;2024-02-21T11:23:13;16.09;54.88
68746;SHT31;73143;45.456;11.064;2024-02-21T11:26:08;16.10;54.45
68746;SHT31;73143;45.456;11.064;2024-02-21T11:28:58;16.13;54.55
68746;SHT31;73143;45.456;11.064;2024-02-21T11:31:43;16.17;54.43
68746;SHT31;73143;45.456;11.064;2024-02-21T11:34:21;16.23;54.57
68746;SHT31;73143;45.456;11.064;2024-02-21T11:36:58;16.25;54.90
68746;SHT31;73143;45.456;11.064;2024-02-21T11:39:44;16.28;54.99
68746;SHT31;73143;45.456;11.064;2024-02-21T11:42:21;16.33;55.29
68746;SHT31;73143;45.456;11.064;2024-02-21T11:44:59;16.38;55.08
68746;SHT31;73143;45.456;11.064;2024-02-21T11:47:39;16.38;55.15
68746;SHT31;73143;45.456;11.064;2024-02-21T11:50:17;16.39;55.60
68746;SHT31;73143;45.456;11.064;2024-02-21T11:52:55;16.43;55.74
68746;SHT31;73143;45.456;11.064;2024-02-21T11:55:32;16.49;55.80
68746;SHT31;73143;45.456;11.064;2024-02-21T11:58:09;16.55;55.73
68746;SHT31;73143;45.456;11.064;2024-02-21T12:00:46;16.59;55.71
68746;SHT31;73143;45.456;11.064;2024-02-21T12:03:23;16.63;55.80
68746;SHT31;73143;45.456;11.064;2024-02-21T12:06:02;16.67;55.41
68746;SHT31;73143;45.456;11.064;2024-02-21T12:08:44;16.70;55.31
68746;SHT31;73143;45.456;11.064;2024-02-21T12:11:24;16.72;55.26
68746;SHT31;73143;45.456;11.064;2024-02-21T12:14:01;16.73;55.16
68746;SHT31;73143;45.456;11.064;2024-02-21T12:16:39;16.76;55.36
68746;SHT31;73143;45.456;11.064;2024-02-21T12:19:18;16.82;55.29
68746;SHT31;73143;45.456;11.064;2024-02-21T12:21:56;16.86;55.25
68746;SHT31;73143;45.456;11.064;2024-02-21T12:24:37;16.90;55.29
68746;SHT31;73143;45.456;11.064;2024-02-21T12:27:17;16.96;55.63
68746;SHT31;73143;45.456;11.064;2024-02-21T12:29:54;17.01;55.61
68746;SHT31;73143;45.456;11.064;2024-02-21T12:32:39;17.04;55.38
68746;SHT31;73143;45.456;11.064;2024-02-21T12:35:18;17.08;55.44
68746;SHT31;73143;45.456;11.064;2024-02-21T12:37:56;17.12;55.09
68746;SHT31;73143;45.456;11.064;2024-02-21T12:40:33;17.12;55.20
68746;SHT31;73143;45.456;11.064;2024-02-21T12:43:10;17.13;55.18
68746;SHT31;73143;45.456;11.064;2024-02-21T12:45:48;17.14;55.10
68746;SHT31;73143;45.456;11.064;2024-02-21T12:48:25;17.13;55.09
68746;SHT31;73143;45.456;11.064;2024-02-21T12:51:03;17.13;54.86
68746;SHT31;73143;45.456;11.064;2024-02-21T12:53:40;17.12;54.69
68746;SHT31;73143;45.456;11.064;2024-02-21T12:56:19;17.09;54.74
68746;SHT31;73143;45.456;11.064;2024-02-21T12:58:57;17.06;54.68
68746;SHT31;73143;45.456;11.064;2024-02-21T13:01:34;17.09;54.43
68746;SHT31;73143;45.456;11.064;2024-02-21T13:04:12;17.11;54.61
68746;SHT31;73143;45.456;11.064;2024-02-21T13:06:51;17.15;54.50
68746;SHT31;73143;45.456;11.064;2024-02-21T13:09:28;17.14;53.67
68746;SHT31;73143;45.456;11.064;2024-02-21T13:12:06;17.13;52.87
68746;SHT31;73143;45.456;11.064;2024-02-21T13:14:45;17.15;52.33
68746;SHT31;73143;45.456;11.064;2024-02-21T13:17:22;17.17;52.53
68746;SHT31;73143;45.456;11.064;2024-02-21T13:20:01;17.18;52.71
68746;SHT31;73143;45.456;11.064;2024-02-21T13:22:42;17.20;52.69
68746;SHT31;73143;45.456;11.064;2024-02-21T13:25:19;17.19;53.14
68746;SHT31;73143;45.456;11.064;2024-02-21T13:27:57;17.23;53.30
68746;SHT31;73143;45.456;11.064;2024-02-21T13:30:34;17.23;53.01
68746;SHT31;73143;45.456;11.064;2024-02-21T13:33:12;17.23;52.69
68746;SHT31;73143;45.456;11.064;2024-02-21T13:35:49;17.26;52.81
68746;SHT31;73143;45.456;11.064;2024-02-21T13:38:27;17.28;52.63
68746;SHT31;73143;45.456;11.064;2024-02-21T13:41:05;17.30;52.09
68746;SHT31;73143;45.456;11.064;2024-02-21T13:43:42;17.33;51.72
68746;SHT31;73143;45.456;11.064;2024-02-21T13:46:19;17.36;51.32
68746;SHT31;73143;45.456;11.064;2024-02-21T13:49:01;17.36;50.81
68746;SHT31;73143;45.456;11.064;2024-02-21T13:51:38;17.33;50.46
68746;SHT31;73143;45.456;11.064;2024-02-21T13:54:16;17.31;50.34
68746;SHT31;73143;45.456;11.064;2024-02-21T13:56:54;17.31;50.65
68746;SHT31;73143;45.456;11.064;2024-02-21T13:59:32;17.35;50.96
68746;SHT31;73143;45.456;11.064;2024-02-21T14:02:09;17.41;50.93
68746;SHT31;73143;45.456;11.064;2024-02-21T14:04:46;17.43;50.54
68746;SHT31;73143;45.456;11.064;2024-02-21T14:07:24;17.43;50.24
68746;SHT31;73143;45.456;11.064;2024-02-21T14:10:02;17.42;49.71
68746;SHT31;73143;45.456;11.064;2024-02-21T14:12:43;17.41;49.77
68746;SHT31;73143;45.456;11.064;2024-02-21T14:15:19;17.42;49.83
68746;SHT31;73143;45.456;11.064;2024-02-21T14:17:57;17.43;49.86
68746;SHT31;73143;45.456;11.064;2024-02-21T14:20:35;17.44;49.85
68746;SHT31;73143;45.456;11.064;2024-02-21T14:23:12;17.45;49.99
68746;SHT31;73143;45.456;11.064;2024-02-21T14:25:50;17.46;50.06
68746;SHT31;73143;45.456;11.064;2024-02-21T14:28:27;17.48;50.20
68746;SHT31;73143;45.456;11.064;2024-02-21T14:31:06;17.47;50.01
68746;SHT31;73143;45.456;11.064;2024-02-21T14:33:43;17.45;50.00
68746;SHT31;73143;45.456;11.064;2024-02-21T14:36:20;17.42;49.69
68746;SHT31;73143;45.456;11.064;2024-02-21T14:38:58;17.37;49.85
68746;SHT31;73143;45.456;11.064;2024-02-21T14:41:35;17.34;50.07
68746;SHT31;73143;45.456;11.064;2024-02-21T14:44:12;17.30;50.31
68746;SHT31;73143;45.456;11.064;2024-02-21T14:46:49;17.27;50.28
68746;SHT31;73143;45.456;11.064;2024-02-21T14:49:26;17.24;50.00
68746;SHT31;73143;45.456;11.064;2024-02-21T14:52:05;17.20;49.92
68746;SHT31;73143;45.456;11.064;2024-02-21T14:54:43;17.15;50.03
68746;SHT31;73143;45.456;11.064;2024-02-21T14:57:20;17.07;50.42
68746;SHT31;73143;45.456;11.064;2024-02-21T14:59:57;17.02;50.45
68746;SHT31;73143;45.456;11.064;2024-02-21T15:02:37;16.96;50.52
68746;SHT31;73143;45.456;11.064;2024-02-21T15:05:15;16.91;50.72
68746;SHT31;73143;45.456;11.064;2024-02-21T15:07:52;16.88;51.00
68746;SHT31;73143;45.456;11.064;2024-02-21T15:10:30;16.84;50.97
68746;SHT31;73143;45.456;11.064;2024-02-21T15:13:08;16.79;51.04
68746;SHT31;73143;45.456;11.064;2024-02-21T15:15:45;16.74;51.22
68746;SHT31;73143;45.456;11.064;2024-02-21T15:18:21;16.69;51.30
68746;SHT31;73143;45.456;11.064;2024-02-21T15:21:02;16.63;51.44
68746;SHT31;73143;45.456;11.064;2024-02-21T15:23:44;16.59;51.69
68746;SHT31;73143;45.456;11.064;2024-02-21T15:26:22;16.55;52.13
68746;SHT31;73143;45.456;11.064;2024-02-21T15:28:59;16.55;52.24
68746;SHT31;73143;45.456;11.064;2024-02-21T15:31:36;16.51;52.05
68746;SHT31;73143;45.456;11.064;2024-02-21T15:34:15;16.48;52.25
68746;SHT31;73143;45.456;11.064;2024-02-21T15:36:54;16.45;52.48
68746;SHT31;73143;45.456;11.064;2024-02-21T15:39:31;16.41;52.56
68746;SHT31;73143;45.456;11.064;2024-02-21T15:42:09;16.39;52.75
68746;SHT31;73143;45.456;11.064;2024-02-21T15:44:46;16.36;52.81
68746;SHT31;73143;45.456;11.064;2024-02-21T15:47:23;16.34;52.85
68746;SHT31;73143;45.456;11.064;2024-02-21T15:50:01;16.29;52.89
68746;SHT31;73143;45.456;11.064;2024-02-21T15:52:44;16.25;52.97
68746;SHT31;73143;45.456;11.064;2024-02-21T15:55:21;16.20;53.11
68746;SHT31;73143;45.456;11.064;2024-02-21T15:57:58;16.17;53.40
68746;SHT31;73143;45.456;11.064;2024-02-21T16:00:36;16.15;53.64
68746;SHT31;73143;45.456;11.064;2024-02-21T16:03:13;16.14;53.77
68746;SHT31;73143;45.456;11.064;2024-02-21T16:05:51;16.11;53.92
68746;SHT31;73143;45.456;11.064;2024-02-21T16:08:27;16.10;54.14
68746;SHT31;73143;45.456;11.064;2024-02-21T16:11:05;16.08;54.27
68746;SHT31;73143;45.456;11.064;2024-02-21T16:13:48;16.08;54.35
68746;SHT31;73143;45.456;11.064;2024-02-21T16:16:26;16.05;53.87
68746;SHT31;73143;45.456;11.064;2024-02-21T16:19:03;16.02;53.87
68746;SHT31;73143;45.456;11.064;2024-02-21T16:21:42;15.98;53.96
68746;SHT31;73143;45.456;11.064;2024-02-21T16:24:19;15.95;54.04
68746;SHT31;73143;45.456;11.064;2024-02-21T16:26:56;15.91;54.34
68746;SHT31;73143;45.456;11.064;2024-02-21T16:29:38;15.85;54.53